• Join FlightAware (Why Join?)
  • Login
  • US Flag 
11:41AM EDT


 

Airport Tracker/Info


-or-


 

Live Flight TrackerFlight Track Log ✈ UAL623 ✈ 14-May-2013 ✈ KORD - KLAX

Flight Track Log - Related Links

Times and Time Zones

All times are in EDT time to prevent confusion due to time zone crossing. See the UAL623 flight status page for this flight to view local times or setup timezone preferences in your user account.

Time Position Orientation Groundspeed Altitude Reporting Facility
EDT Latitude Longitude Course Direction KTS MPH feet Rate Location/Type
07:38PM 41.9333 -87.9167 253° West 170 196 2,100  Level Chicago TRACON
07:39PM 41.9167 -87.9667 246° West 169 194 4,100 2,160 Climbing Chicago TRACON
07:41PM 41.8722 -88.3446 242° Southwest  Level FlightAware Approximate
07:41PM 41.8567 -88.0908 237° Southwest 248 285 8,300  Level Chicago Center
07:42PM 41.8318 -88.4902 254° West  Level FlightAware Approximate
07:42PM 41.8547 -88.1819 268° West 248 285 10,500  Level Chicago Center
07:43PM 41.7987 -88.6401 254° West  Level FlightAware Approximate
07:43PM 41.8342 -88.2900 256° West 300 345 12,500  Level Chicago Center
07:44PM 41.7654 -88.7899 253° West  Level FlightAware Approximate
07:44PM 41.8047 -88.4350 255° West 342 394 14,500  Level Chicago Center
07:45PM 41.7775 -88.5664 255° West 366 421 16,300 1,860 Climbing Chicago Center
07:47PM 41.7472 -88.7061 254° West 387 445 18,400 2,040 Climbing Chicago Center
07:48PM 41.7172 -88.8508 255° West 402 463 20,600 1,920 Climbing Chicago Center
07:49PM 41.6858 -88.9956 254° West 407 468 22,400 1,800 Climbing Chicago Center
07:50PM 41.6475 -89.1750 254° West 419 482 24,400 1,680 Climbing Chicago Center
07:51PM 41.6156 -89.3283 254° West 430 495 25,900 1,320 Climbing Chicago Center
07:52PM 41.5811 -89.4836 254° West 437 503 27,200 1,320 Climbing Chicago Center
07:53PM 41.5458 -89.6464 254° West 449 517 28,700 1,500 Climbing Chicago Center
07:54PM 41.5111 -89.8031 254° West 445 512 30,400 1,740 Climbing Chicago Center
07:55PM 41.4703 -89.9914 254° West 441 507 32,300 1,560 Climbing Chicago Center
07:56PM 41.4342 -90.1464 253° West 440 506 33,700 1,260 Climbing Chicago Center
07:57PM 41.4006 -90.2986 254° West 434 499 35,000 1,080 Climbing Chicago Center
07:58PM 41.3625 -90.4647 253° West 433 498 36,000 480 Climbing Chicago Center
07:59PM 41.3319 -90.6031 254° West 431 496 36,000  Level Chicago Center
08:00PM 41.2917 -90.7886 254° West 434 499 36,000  Level Chicago Center
08:01PM 41.2617 -90.9386 255° West 426 490 36,000  Level Chicago Center
08:02PM 41.2294 -91.0894 254° West 425 489 36,000  Level Chicago Center
08:03PM 41.1989 -91.2411 255° West 427 491 36,000  Level Chicago Center
08:04PM 41.1675 -91.3922 255° West 426 490 36,000  Level Chicago Center
08:05PM 41.1353 -91.5456 254° West 431 496 36,000  Level Chicago Center
08:06PM 41.0969 -91.7283 255° West 431 496 36,000  Level Chicago Center
08:07PM 41.0658 -91.8786 255° West 429 494 36,000  Level Chicago Center
08:08PM 41.0408 -92.0319 258° West 428 493 36,000  Level Chicago Center
08:09PM 41.0136 -92.1836 257° West 429 494 36,000  Level Chicago Center
08:10PM 40.9808 -92.3664 257° West 430 495 36,000  Level Chicago Center
08:11PM 40.9533 -92.5189 257° West 432 497 36,000  Level Chicago Center
08:12PM 40.9256 -92.6714 256° West 433 498 36,000  Level Chicago Center
08:13PM 40.8969 -92.8247 256° West 435 501 36,000  Level Chicago Center
08:14PM 40.8861 -92.8867 257° West 435 501 36,000  Level Minneapolis Center
08:15PM 40.8578 -93.0381 256° West 433 498 36,000  Level Minneapolis Center
08:16PM 40.8181 -93.2486 256° West 429 494 36,000  Level Minneapolis Center
08:17PM 40.7925 -93.4031 258° West 434 499 36,000  Level Minneapolis Center
08:18PM 40.7694 -93.5567 259° West 436 502 36,000  Level Minneapolis Center
08:19PM 40.7450 -93.7119 258° West 438 504 36,000  Level Minneapolis Center
08:20PM 40.7197 -93.8664 258° West 437 503 36,000  Level Minneapolis Center
08:21PM 40.6886 -94.0528 258° West 438 504 36,000  Level Minneapolis Center
08:22PM 40.6622 -94.2083 257° West 439 505 36,000  Level Minneapolis Center
08:23PM 40.6375 -94.3628 258° West 437 503 36,000  Level Minneapolis Center
08:24PM 40.6117 -94.5175 258° West 438 504 36,000  Level Minneapolis Center
08:25PM 40.5819 -94.6939 258° West 438 504 36,000  Level Minneapolis Center
08:26PM 40.5564 -94.8508 258° West 439 505 36,000  Level Minneapolis Center
08:27PM 40.5292 -95.0061 257° West 436 502 36,000  Level Minneapolis Center
08:28PM 40.5028 -95.1628 258° West 437 503 36,000 120 Level Minneapolis Center
08:29PM 40.4758 -95.3219 258° West 441 507 36,300 720 Climbing Minneapolis Center
08:31PM 40.4486 -95.4758 257° West 437 503 37,500 780 Climbing Minneapolis Center
08:32PM 40.4161 -95.6583 257° West 431 496 38,000 240 Climbing Minneapolis Center
08:33PM 40.3894 -95.8156 257° West 434 499 38,000  Level Minneapolis Center
08:34PM 40.3617 -95.9683 257° West 432 497 38,000  Level Minneapolis Center
08:35PM 40.3347 -96.1214 257° West 430 495 38,000  Level Minneapolis Center
08:36PM 40.3058 -96.2769 256° West 435 501 38,000  Level Minneapolis Center
08:37PM 40.2775 -96.4331 257° West 438 504 38,000  Level Minneapolis Center
08:38PM 40.2483 -96.5869 256° West 436 502 38,000  Level Minneapolis Center
08:39PM 40.2192 -96.7417 256° West 437 503 38,000  Level Minneapolis Center
08:40PM 40.1850 -96.9275 257° West 436 502 38,000  Level Minneapolis Center
08:41PM 40.1553 -97.0828 256° West 439 505 38,000  Level Minneapolis Center
08:42PM 40.1269 -97.2378 257° West 438 504 38,000  Level Minneapolis Center
08:43PM 40.0981 -97.3808 255° West 439 505 38,000  Level Minneapolis Center
08:44PM 40.0611 -97.5681 256° West 442 509 38,000  Level Minneapolis Center
08:45PM 40.0314 -97.7242 256° West 442 509 38,000  Level Minneapolis Center
08:46PM 40.0006 -97.8808 256° West 444 511 38,000  Level Minneapolis Center
08:47PM 39.9697 -98.0378 256° West 446 513 38,000  Level Minneapolis Center
08:48PM 39.9378 -98.1964 255° West 449 517 38,000  Level Minneapolis Center
08:49PM 39.9058 -98.3544 255° West 450 518 38,000  Level Minneapolis Center
08:50PM 39.8728 -98.5133 255° West 452 520 38,000  Level Minneapolis Center
08:51PM 39.8342 -98.7039 255° West 452 520 38,000  Level Minneapolis Center
08:52PM 39.8011 -98.8628 255° West 453 521 38,000  Level Minneapolis Center
08:53PM 39.7686 -99.0217 255° West 453 521 38,000  Level Minneapolis Center
08:54PM 39.7278 -99.2122 254° West 454 522 38,000  Level Denver Center
08:55PM 39.6936 -99.3731 255° West 460 529 38,000  Level Denver Center
08:56PM 39.6597 -99.5333 255° West 460 529 38,000  Level Denver Center
08:58PM 39.6247 -99.6933 254° West 460 529 38,000  Level Denver Center
08:59PM 39.5908 -99.8536 255° West 460 529 38,000  Level Denver Center
09:00PM 39.5522 -100.0264 254° West 460 529 38,000  Level Denver Center
09:01PM 39.5128 -100.2056 254° West 462 532 38,000  Level Denver Center
09:02PM 39.4792 -100.3569 254° West 459 528 38,000  Level Denver Center
09:03PM 39.4453 -100.5111 254° West 461 531 38,000  Level Denver Center
09:04PM 39.4050 -100.6906 254° West 464 534 38,000  Level Denver Center
09:05PM 39.3711 -100.8439 254° West 463 533 38,000  Level Denver Center
09:06PM 39.3300 -101.0225 253° West 463 533 38,000  Level Denver Center
09:07PM 39.2936 -101.1756 253° West 466 536 38,000  Level Denver Center
09:08PM 39.2472 -101.3792 254° West 464 534 38,000  Level Denver Center
09:09PM 39.2106 -101.5319 253° West 463 533 38,000  Level Denver Center
09:10PM 39.1689 -101.7119 253° West 462 532 38,000  Level Denver Center
09:11PM 39.1333 -101.8644 253° West 464 534 38,000  Level Denver Center
09:12PM 39.0900 -102.0431 253° West 469 540 38,000  Level Denver Center
09:13PM 39.0542 -102.1942 253° West 466 536 38,000  Level Denver Center
09:14PM 39.0172 -102.3461 253° West 466 536 38,000  Level Denver Center
09:15PM 38.9736 -102.5225 252° West 465 535 38,000  Level Denver Center
09:16PM 38.9375 -102.6722 253° West 461 531 38,000  Level Denver Center
09:17PM 38.8989 -102.8283 252° West 460 529 38,000  Level Denver Center
09:18PM 38.8553 -103.0031 252° West 460 529 38,000  Level Denver Center
09:19PM 38.8175 -103.1539 252° West 464 534 38,000  Level Denver Center
09:20PM 38.7742 -103.3281 252° West 460 529 38,000  Level Denver Center
09:21PM 38.7361 -103.4775 252° West 461 531 38,000  Level Denver Center
09:22PM 38.6908 -103.6525 252° West 465 535 38,000  Level Denver Center
09:23PM 38.6522 -103.8006 252° West 461 531 38,000  Level Denver Center
09:24PM 38.6067 -103.9744 252° West 464 534 38,000  Level Denver Center
09:25PM 38.5681 -104.1242 252° West 464 534 38,000  Level Denver Center
09:27PM 38.5292 -104.2728 252° West 463 533 38,000  Level Denver Center
09:28PM 38.4842 -104.4453 252° West 462 532 38,000  Level Denver Center
09:29PM 38.4453 -104.5922 251° West 459 528 38,000  Level Denver Center
09:30PM 38.3989 -104.7661 251° West 463 533 38,000  Level Denver Center
09:31PM 38.3597 -104.9133 251° West 462 532 38,000  Level Denver Center
09:32PM 38.3125 -105.0864 251° West 463 533 38,000  Level Denver Center
09:33PM 38.2728 -105.2333 251° West 462 532 38,000  Level Denver Center
09:34PM 38.2250 -105.4064 251° West 463 533 38,000  Level Denver Center
09:35PM 38.1833 -105.5536 250° West 463 533 38,000  Level Denver Center
09:36PM 38.1433 -105.7017 251° West 465 535 38,000  Level Denver Center
09:37PM 38.0933 -105.8767 250° West 465 535 38,000  Level Denver Center
09:38PM 38.0531 -106.0217 251° West 465 535 38,000  Level Denver Center
09:39PM 38.0050 -106.1928 250° West 463 533 38,000  Level Denver Center
09:40PM 37.9631 -106.3397 250° West 462 532 38,000  Level Denver Center
09:41PM 37.9144 -106.5103 250° West 463 533 38,000  Level Denver Center
09:42PM 37.8711 -106.6617 250° West 463 533 38,000  Level Denver Center
09:43PM 37.8153 -106.8533 250° West 467 537 38,000  Level Denver Center
09:44PM 37.7728 -106.9997 250° West 465 535 38,000  Level Denver Center
09:45PM 37.7219 -107.1708 249° West 467 537 38,000  Level Denver Center
09:46PM 37.6786 -107.3167 249° West 466 536 38,000  Level Denver Center
09:47PM 37.6281 -107.4892 250° West 469 540 38,000  Level Denver Center
09:48PM 37.5836 -107.6350 249° West 468 539 38,000  Level Denver Center
09:49PM 37.5406 -107.7831 250° West 468 539 38,000  Level Denver Center
09:50PM 37.4892 -107.9536 249° West 469 540 38,000  Level Denver Center
09:51PM 37.4442 -108.1006 249° West 470 541 38,000  Level Denver Center
09:52PM 37.3917 -108.2714 249° West 471 542 38,000  Level Denver Center
09:53PM 37.3467 -108.4186 249° West 471 542 38,000  Level Denver Center
09:54PM 37.2944 -108.5892 249° West 471 542 38,000  Level Denver Center
09:55PM 37.2483 -108.7364 249° West 472 543 38,000  Level Denver Center
09:57PM 37.1944 -108.9075 248° West 473 544 38,000  Level Denver Center
09:58PM 37.1400 -109.0797 248° West 477 549 38,000  Level Denver Center
09:59PM 37.0867 -109.2508 249° West 475 547 38,000  Level Denver Center
10:00PM 37.0397 -109.3997 248° West 479 551 38,000  Level Denver Center
10:01PM 36.9850 -109.5708 248° West 478 550 38,000  Level Denver Center
10:02PM 36.9397 -109.7150 249° West 470 541 38,000  Level Denver Center
10:03PM 36.8836 -109.8850 248° West 472 543 38,000  Level Denver Center
10:04PM 36.8369 -110.0294 248° West 470 541 38,000  Level Denver Center
10:05PM 36.7847 -110.1906 248° West 471 542 38,000  Level Denver Center
10:06PM 36.7453 -110.3114 248° West 470 541 38,000  Level Denver Center
10:07PM 36.6856 -110.4919 248° West 470 541 38,000  Level Denver Center
10:08PM 36.6364 -110.6428 248° West 471 542 38,000  Level Denver Center
10:09PM 36.5883 -110.7894 248° West 463 533 38,000  Level Denver Center
10:10PM 36.5372 -110.9406 247° West 468 539 38,000  Level Denver Center
10:11PM 36.4853 -111.0903 247° West 471 542 38,000  Level Denver Center
10:12PM 36.4267 -111.2664 248° West 464 534 38,000  Level Denver Center
10:13PM 36.3747 -111.4158 247° West 467 537 38,000  Level Denver Center
10:14PM 36.3253 -111.5619 247° West 463 533 38,000  Level Denver Center
10:15PM 36.2750 -111.7092 247° West 463 533 38,000  Level Denver Center
10:16PM 36.2239 -111.8556 247° West 462 532 38,000  Level Denver Center
10:17PM 36.1869 -111.9608 247° West 461 531 38,000  Level Los Angeles Center
10:18PM 36.1267 -112.1358 247° West 463 533 38,000  Level Los Angeles Center
10:19PM 36.0719 -112.2922 247° West 455 524 38,000  Level Los Angeles Center
10:20PM 36.0219 -112.4331 246° West 449 517 38,000  Level Los Angeles Center
10:21PM 35.9711 -112.5758 246° West 452 520 38,000  Level Los Angeles Center
10:22PM 35.9181 -112.7292 247° West 457 526 38,000  Level Los Angeles Center
10:23PM 35.8686 -112.8692 246° West 453 521 38,000  Level Los Angeles Center
10:25PM 35.8083 -113.0364 246° West 452 520 38,000  Level Los Angeles Center
10:26PM 35.7578 -113.1767 246° West 453 521 38,000  Level Los Angeles Center
10:27PM 35.6983 -113.3419 246° West 449 517 38,000  Level Los Angeles Center
10:28PM 35.6486 -113.4792 246° West 448 516 38,000  Level Los Angeles Center
10:29PM 35.5953 -113.6156 244° Southwest 447 514 38,000  Level Los Angeles Center
10:30PM 35.5417 -113.7511 244° Southwest 447 514 38,000  Level Los Angeles Center
10:31PM 35.4869 -113.8867 244° Southwest 447 514 38,000  Level Los Angeles Center
10:32PM 35.4214 -114.0425 243° Southwest 448 516 38,000  Level Los Angeles Center
10:33PM 35.3667 -114.1775 244° Southwest 443 510 38,000  Level Los Angeles Center
10:34PM 35.3125 -114.3122 244° Southwest 440 506 38,000  Level Los Angeles Center
10:35PM 35.2672 -114.4211 243° Southwest 444 511 38,000  Level Los Angeles Center
10:36PM 35.1997 -114.5803 243° Southwest 438 504 38,000  Level Los Angeles Center
10:37PM 35.1419 -114.7172 243° Southwest 447 514 38,000  Level Los Angeles Center
10:38PM 35.0767 -114.8772 244° Southwest 441 507 38,000  Level Los Angeles Center
10:39PM 35.0214 -115.0097 243° Southwest 439 505 38,000  Level Los Angeles Center
10:40PM 34.9653 -115.1439 243° Southwest 441 507 38,000  Level Los Angeles Center
10:41PM 34.9097 -115.2747 243° Southwest 434 499 38,000  Level Los Angeles Center
10:42PM 34.8525 -115.4064 242° Southwest 437 503 38,000  Level Los Angeles Center
10:43PM 34.7953 -115.5400 242° Southwest 442 509 38,000 -360 Level Los Angeles Center
10:44PM 34.7361 -115.6789 243° Southwest 438 504 37,300 -1,080 Descending Los Angeles Center
10:45PM 34.6797 -115.8117 243° Southwest 442 509 35,800 -1,440 Descending Los Angeles Center
10:46PM 34.6217 -115.9472 243° Southwest 450 518 34,400 -1,260 Descending Los Angeles Center
10:47PM 34.5619 -116.0828 242° Southwest 455 524 33,300 -1,200 Descending Los Angeles Center
10:48PM 34.5025 -116.2192 242° Southwest 457 526 32,000 -900 Descending Los Angeles Center
10:49PM 34.4422 -116.3581 242° Southwest 465 535 31,500 -660 Descending Los Angeles Center
10:50PM 34.3822 -116.4922 242° Southwest 455 524 30,700 -1,140 Descending Los Angeles Center
10:51PM 34.3128 -116.6506 242° Southwest 446 513 29,200 -1,800 Descending Los Angeles Center
10:52PM 34.2581 -116.7733 242° Southwest 422 486 27,100 -2,460 Descending Los Angeles Center
10:53PM 34.2064 -116.8875 241° Southwest 395 455 24,200 -2,700 Descending Los Angeles Center
10:54PM 34.1567 -116.9992 242° Southwest 382 440 21,400 -2,640 Descending Los Angeles Center
10:55PM 34.1106 -117.1056 242° Southwest 361 415 18,900 -2,400 Descending Los Angeles Center
10:56PM 34.1000 -117.1500 254° West 338 389 18,400 -1,740 Descending Southern California TRACON
10:57PM 34.0500 -117.2333 234° Southwest 322 371 16,700 -1,680 Descending Southern California TRACON
10:58PM 34.0333 -117.3500 260° West 309 356 15,100 -1,740 Descending Southern California TRACON
10:59PM 34.0333 -117.4500 270° West 319 367 13,300 -1,860 Descending Southern California TRACON
11:00PM 34.0333 -117.5500 270° West 289 333 11,400 -1,680 Descending Southern California TRACON
11:01PM 34.0333 -117.6500 270° West 280 322 10,000 -960 Descending Southern California TRACON
11:02PM 34.0167 -117.7333 256° West 263 303 9,500 -840 Descending Southern California TRACON
11:03PM 34.0167 -117.8333 270° West 276 318 8,400 -1,260 Descending Southern California TRACON
11:04PM 34.0000 -117.9167 256° West 272 313 7,000 -1,080 Descending Southern California TRACON
11:05PM 33.9833 -118.0000 256° West 234 269 6,300 -900 Descending Southern California TRACON
11:06PM 33.9833 -118.0667 270° West 227 261 5,200 -1,140 Descending Southern California TRACON
11:07PM 33.9833 -118.1500 270° West 241 277 4,100 -1,140 Descending Southern California TRACON